»·PEaware :: N286AC KMRY-KSAC

N286AC :: KMRY-KSAC

FLIGHT INFORMATION

Flight Status: Arrived
Operator: Privately registered:
United States
More flights under this callsign
Pilot: Justin C. (19245)
Aircraft: BEECH AIRCRAFT DEBONAIR BONANZA
(BE33)
More flights by this aircraft type
Origin: KMRY Monterey Peninsula
United States
Destination: KSAC Sacramento Executive
United States
More flights between these airports :: More routes between these airports
Route: +MRY4 SNS V111 MOD V113 LIN V23 SAC
File this flight plan on PilotEdge
Remarks:
Altitude:
(Current/Filed)
7,000ft
Speed:
(Current/Filed)
140kts
Departed: 05-Sep-18 04:56 PM
Arrived: 05-Sep-18 05:54 PM
Distance/Time
Traveled:
117nm/0:58
Distance/Time
To Go:
Arrived

Flight Plot

Page will automatically refresh every two minutes.

Flight plan parsing failed; only flown route is shown


Map Options




Map Legend


Flown Route
Filed Route
Departure Airport
Arrival Airport
Navaid (VOR, NDB)
Fix

Horizontal Profiles

Position Reports

Time Latitude Longitude Heading Altitude Ground
Speed
05-Sep-18 16:43 36.588685 -121.853667 293 258ft 0kts
05-Sep-18 16:44 36.588685 -121.853667 293 258ft 0kts
05-Sep-18 16:45 36.588685 -121.853667 293 258ft 0kts
05-Sep-18 16:46 36.588685 -121.853667 293 258ft 0kts
05-Sep-18 16:47 36.588685 -121.853667 293 258ft 0kts
05-Sep-18 16:48 36.588685 -121.853667 293 258ft 0kts
05-Sep-18 16:49 36.588685 -121.853667 293 258ft 0kts
05-Sep-18 16:50 36.588739 -121.853667 26 259ft 0kts
05-Sep-18 16:51 36.588739 -121.853667 26 259ft 0kts
05-Sep-18 16:52 36.588350 -121.850884 111 259ft 20kts
05-Sep-18 16:53 36.586231 -121.844992 112 259ft 17kts
05-Sep-18 16:54 36.584357 -121.839478 112 259ft 17kts
05-Sep-18 16:55 36.582812 -121.834657 96 259ft 5kts
05-Sep-18 16:56 36.582811 -121.834644 96 258ft 0kts
05-Sep-18 16:57 36.582799 -121.834248 88 258ft 11kts
05-Sep-18 16:58 36.588483 -121.848750 286 370ft 99kts
05-Sep-18 16:59 36.604203 -121.882298 330 1429ft 125kts
05-Sep-18 17:00 36.640181 -121.894406 339 2296ft 144kts
05-Sep-18 17:01 36.676025 -121.907962 340 3469ft 129kts
05-Sep-18 17:02 36.701016 -121.889272 71 4622ft 119kts
05-Sep-18 17:03 36.712731 -121.851906 71 5669ft 116kts
05-Sep-18 17:04 36.724621 -121.814551 71 6665ft 117kts
05-Sep-18 17:05 36.737974 -121.772090 72 7009ft 158kts
05-Sep-18 17:06 36.753333 -121.719577 72 6996ft 168kts
05-Sep-18 17:07 36.768899 -121.664236 72 6998ft 170kts
05-Sep-18 17:08 36.784494 -121.608336 71 6989ft 172kts
05-Sep-18 17:09 36.799730 -121.551917 71 6989ft 172kts
05-Sep-18 17:10 36.828311 -121.507097 35 6971ft 173kts
05-Sep-18 17:11 36.868423 -121.474132 29 6971ft 174kts
05-Sep-18 17:12 36.910296 -121.444325 26 6971ft 174kts
05-Sep-18 17:13 36.952749 -121.415701 25 6971ft 174kts
05-Sep-18 17:14 36.995234 -121.386932 33 6966ft 174kts
05-Sep-18 17:15 37.034396 -121.351425 31 6972ft 174kts
05-Sep-18 17:16 37.073472 -121.321790 28 6970ft 174kts
05-Sep-18 17:17 37.114746 -121.293519 26 7078ft 167kts
05-Sep-18 17:18 37.154885 -121.267110 26 7107ft 171kts
05-Sep-18 17:19 37.197116 -121.239687 27 7106ft 170kts
05-Sep-18 17:20 37.238994 -121.212402 27 7106ft 169kts
05-Sep-18 17:21 37.280594 -121.185196 27 6999ft 175kts
05-Sep-18 17:22 37.323374 -121.157219 26 6996ft 173kts
05-Sep-18 17:23 37.365722 -121.129562 26 6996ft 172kts
05-Sep-18 17:24 37.407955 -121.101970 25 6996ft 171kts
05-Sep-18 17:24 37.441137 -121.080269 24 6996ft 170kts
05-Sep-18 17:25 37.483166 -121.052811 24 6996ft 170kts
05-Sep-18 17:26 37.525021 -121.025416 24 6997ft 170kts
05-Sep-18 17:28 37.573854 -120.993375 24 6997ft 170kts
05-Sep-18 17:28 37.608633 -120.970517 24 6997ft 170kts
05-Sep-18 17:29 37.651752 -120.956807 342 6998ft 163kts
05-Sep-18 17:30 37.696480 -120.961553 4 6997ft 167kts
05-Sep-18 17:32 37.750105 -120.959168 353 6997ft 165kts
05-Sep-18 17:32 37.788427 -120.962341 350 6997ft 165kts
05-Sep-18 17:33 37.834122 -120.968068 349 6997ft 165kts
05-Sep-18 17:34 37.879529 -120.974584 349 7016ft 165kts
05-Sep-18 17:35 37.925085 -120.981376 349 7015ft 165kts
05-Sep-18 17:36 37.970076 -120.988215 349 7015ft 165kts
05-Sep-18 17:37 38.012820 -120.994511 348 6995ft 159kts
05-Sep-18 17:38 38.058794 -121.001460 349 6219ft 162kts
05-Sep-18 17:39 38.093517 -121.025418 292 5508ft 147kts
05-Sep-18 17:40 38.116366 -121.062754 305 4868ft 147kts
05-Sep-18 17:41 38.141577 -121.103470 307 4189ft 146kts
05-Sep-18 17:42 38.170950 -121.132959 325 4105ft 135kts
05-Sep-18 17:43 38.205768 -121.158752 326 4053ft 153kts
05-Sep-18 17:44 38.241759 -121.185404 326 3973ft 144kts
05-Sep-18 17:45 38.275877 -121.210312 326 3324ft 143kts
05-Sep-18 17:46 38.310465 -121.235186 326 2663ft 143kts
05-Sep-18 17:47 38.345378 -121.259764 326 1998ft 146kts
05-Sep-18 17:48 38.377630 -121.281548 325 1980ft 127kts
05-Sep-18 17:49 38.412323 -121.305716 326 1980ft 151kts
05-Sep-18 17:50 38.449697 -121.332066 326 1979ft 160kts
05-Sep-18 17:51 38.483010 -121.368263 304 1808ft 159kts
05-Sep-18 17:52 38.503329 -121.410895 288 1300ft 122kts
05-Sep-18 17:53 38.519705 -121.448814 296 928ft 115kts
05-Sep-18 17:54 38.526476 -121.482033 224 295ft 96kts
05-Sep-18 17:55 38.511553 -121.495581 231 27ft 21kts
05-Sep-18 17:56 38.511352 -121.496887 273 27ft 6kts
05-Sep-18 17:57 38.512044 -121.500107 22 27ft 0kts
05-Sep-18 17:58 38.512044 -121.500107 22 27ft 0kts
05-Sep-18 17:59 38.512044 -121.500107 22 27ft 0kts

Navigation Log

Ident Type
Flight plan parsing failed, navigation log unavailable